createdAt,value
2018-01-10T00:02:08.885Z,5.90
2018-01-10T00:04:37.883Z,6.00
2018-01-10T00:07:06.124Z,6.00
2018-01-10T00:09:34.512Z,5.80
2018-01-10T00:12:02.804Z,6.00
2018-01-10T00:14:31.162Z,5.70
2018-01-10T00:16:59.465Z,5.80
2018-01-10T00:19:28.466Z,5.80
2018-01-10T00:21:56.897Z,5.80
2018-01-10T00:24:25.189Z,5.80
2018-01-10T00:26:53.430Z,5.90
2018-01-10T00:29:21.918Z,5.90
2018-01-10T00:31:50.167Z,5.80
2018-01-10T00:34:18.397Z,5.90
2018-01-10T00:36:46.855Z,6.00
2018-01-10T00:39:15.079Z,5.80
2018-01-10T00:41:43.317Z,5.80
2018-01-10T00:44:11.598Z,5.90
2018-01-10T00:46:39.821Z,5.90
2018-01-10T00:49:08.151Z,5.90
2018-01-10T00:51:37.265Z,5.80
2018-01-10T00:54:06.317Z,5.70
2018-01-10T00:56:35.358Z,5.80
2018-01-10T00:59:04.432Z,5.60
2018-01-10T01:01:32.659Z,5.60
2018-01-10T01:04:00.985Z,5.80
2018-01-10T01:06:29.301Z,5.90
2018-01-10T01:08:57.550Z,5.90
2018-01-10T01:11:25.880Z,5.80
2018-01-10T01:13:54.109Z,5.80
2018-01-10T01:16:22.350Z,5.90
2018-01-10T01:18:50.698Z,5.70
2018-01-10T01:21:18.989Z,5.80
2018-01-10T01:23:47.236Z,5.80
2018-01-10T01:26:15.535Z,5.80
2018-01-10T01:28:43.769Z,5.80
2018-01-10T01:31:12.096Z,5.80
2018-01-10T01:33:41.274Z,6.00
2018-01-10T01:36:09.505Z,6.00
2018-01-10T01:38:38.552Z,5.90
2018-01-10T01:41:06.853Z,5.90
2018-01-10T01:43:35.142Z,6.00
2018-01-10T01:46:04.150Z,5.90
2018-01-10T01:48:33.237Z,6.10
2018-01-10T01:51:02.266Z,6.00
2018-01-10T01:53:30.516Z,6.00
2018-01-10T01:55:58.814Z,5.90
2018-01-10T01:58:27.046Z,5.90
2018-01-10T02:00:56.080Z,5.90
2018-01-10T02:03:24.440Z,5.90
2018-01-10T02:05:52.736Z,6.00
2018-01-10T02:08:20.952Z,5.90
2018-01-10T02:10:49.263Z,5.90
2018-01-10T02:13:17.516Z,5.90
2018-01-10T02:15:45.968Z,5.90
2018-01-10T02:18:14.374Z,5.90
2018-01-10T02:20:42.652Z,6.00
2018-01-10T02:23:10.885Z,5.90
2018-01-10T02:25:39.209Z,6.00
2018-01-10T02:28:07.436Z,6.00
2018-01-10T02:30:35.699Z,6.00
2018-01-10T02:33:03.997Z,6.00
2018-01-10T02:35:32.331Z,6.10
2018-01-10T02:38:00.653Z,6.10
2018-01-10T02:40:28.979Z,6.00
2018-01-10T02:42:58.013Z,6.00
2018-01-10T02:45:26.251Z,6.00
2018-01-10T02:47:54.598Z,6.00
2018-01-10T02:50:22.872Z,6.10
2018-01-10T02:52:51.110Z,6.00
2018-01-10T02:55:19.404Z,6.00
2018-01-10T02:57:47.656Z,6.00
2018-01-10T03:00:15.919Z,6.10
2018-01-10T03:02:44.200Z,6.00
2018-01-10T03:05:12.454Z,6.00
2018-01-10T03:07:41.472Z,6.10
2018-01-10T03:10:10.536Z,6.10
2018-01-10T03:12:39.543Z,5.90
2018-01-10T03:15:07.774Z,5.90
2018-01-10T03:17:36.417Z,6.00
2018-01-10T03:20:04.708Z,5.80
2018-01-10T03:22:32.964Z,5.70
2018-01-10T03:25:01.247Z,5.90
2018-01-10T03:27:29.485Z,6.00
2018-01-10T03:29:58.485Z,6.10
2018-01-10T03:32:26.767Z,6.10
2018-01-10T03:34:55.021Z,6.10
2018-01-10T03:37:23.286Z,5.80
2018-01-10T03:39:51.566Z,5.80
2018-01-10T03:42:19.813Z,6.00
2018-01-10T03:44:48.038Z,6.00
2018-01-10T03:47:17.086Z,6.10
2018-01-10T03:49:45.386Z,6.10
2018-01-10T03:52:13.693Z,6.10
2018-01-10T03:54:41.972Z,6.10
2018-01-10T03:57:10.254Z,6.20
2018-01-10T03:59:38.536Z,6.20
2018-01-10T04:02:06.954Z,6.20
2018-01-10T04:04:35.195Z,6.10
2018-01-10T04:07:03.458Z,6.10
2018-01-10T04:09:31.768Z,6.10
2018-01-10T04:11:59.991Z,6.10
2018-01-10T04:14:28.988Z,5.90
2018-01-10T04:16:58.054Z,6.00
2018-01-10T04:19:26.387Z,6.00
2018-01-10T04:21:54.633Z,6.10
2018-01-10T04:24:22.904Z,6.10
2018-01-10T04:26:51.892Z,6.10
2018-01-10T04:29:20.945Z,6.10
2018-01-10T04:31:49.235Z,6.10
2018-01-10T04:34:17.470Z,6.10
2018-01-10T04:36:45.696Z,6.10
2018-01-10T04:39:13.972Z,5.90
2018-01-10T04:41:42.236Z,5.70
2018-01-10T04:44:10.479Z,5.60
2018-01-10T04:46:38.745Z,5.80
2018-01-10T04:49:06.989Z,6.00
2018-01-10T04:51:35.305Z,6.00
2018-01-10T04:54:03.597Z,6.00
2018-01-10T04:56:31.891Z,6.00
2018-01-10T04:59:00.137Z,6.00
2018-01-10T05:01:28.418Z,6.00
2018-01-10T05:03:56.627Z,6.10
2018-01-10T05:06:24.942Z,6.10
2018-01-10T05:08:53.227Z,6.00
2018-01-10T05:11:21.458Z,6.10
2018-01-10T05:13:49.792Z,6.00
2018-01-10T05:16:18.095Z,6.10
2018-01-10T05:18:46.391Z,6.00
2018-01-10T05:21:15.016Z,6.10
2018-01-10T05:23:43.424Z,6.10
2018-01-10T05:26:11.695Z,6.10
2018-01-10T05:28:39.944Z,6.10
2018-01-10T05:31:08.349Z,6.10
2018-01-10T05:33:36.624Z,6.00
2018-01-10T05:36:04.880Z,6.10
2018-01-10T05:38:33.934Z,6.10
2018-01-10T05:41:02.178Z,6.10
2018-01-10T05:43:30.416Z,6.20
2018-01-10T05:45:58.704Z,6.20
2018-01-10T05:48:27.317Z,6.20
2018-01-10T05:50:55.540Z,6.20
2018-01-10T05:53:23.838Z,6.10
2018-01-10T05:55:52.800Z,6.10
2018-01-10T05:58:21.789Z,6.10
2018-01-10T06:00:50.826Z,6.10
2018-01-10T06:03:19.085Z,6.00
2018-01-10T06:05:47.350Z,6.00
2018-01-10T06:08:15.696Z,6.10
2018-01-10T06:10:43.957Z,6.10
2018-01-10T06:13:12.295Z,6.10
2018-01-10T06:15:40.601Z,6.10
2018-01-10T06:18:08.869Z,6.20
2018-01-10T06:20:37.957Z,6.10
2018-01-10T06:23:06.376Z,6.10
2018-01-10T06:25:35.506Z,6.20
2018-01-10T06:28:03.772Z,6.10
2018-01-10T06:30:32.814Z,6.20
2018-01-10T06:33:01.071Z,6.20
2018-01-10T06:35:29.392Z,6.20
2018-01-10T06:37:57.676Z,6.20
2018-01-10T06:40:26.728Z,6.20
2018-01-10T06:42:54.975Z,6.20
2018-01-10T06:45:23.261Z,6.30
2018-01-10T06:47:51.513Z,6.40
2018-01-10T06:50:20.519Z,6.20
2018-01-10T06:52:49.577Z,6.30
2018-01-10T06:55:17.815Z,6.30
2018-01-10T06:57:46.067Z,6.30
2018-01-10T07:00:14.338Z,6.20
2018-01-10T07:02:42.590Z,6.20
2018-01-10T07:05:11.698Z,6.20
2018-01-10T07:07:40.013Z,6.20
2018-01-10T07:10:08.291Z,6.30
2018-01-10T07:12:36.542Z,6.20
2018-01-10T07:15:04.922Z,6.30
2018-01-10T07:17:33.198Z,6.60
2018-01-10T07:20:01.560Z,6.70
2018-01-10T07:22:30.668Z,6.80
2018-01-10T07:24:58.983Z,6.80
2018-01-10T07:27:27.244Z,6.80
2018-01-10T07:29:55.523Z,6.90
2018-01-10T07:32:23.805Z,7.00
2018-01-10T07:34:52.077Z,6.80
2018-01-10T07:37:20.427Z,6.60
2018-01-10T07:39:48.740Z,6.50
2018-01-10T07:42:16.976Z,6.50
2018-01-10T07:44:45.341Z,6.50
2018-01-10T07:47:13.662Z,6.20
2018-01-10T07:49:42.706Z,6.40
2018-01-10T07:52:11.005Z,6.40
2018-01-10T07:54:39.245Z,6.30
2018-01-10T07:57:08.256Z,6.40
2018-01-10T07:59:37.410Z,6.40
2018-01-10T08:02:06.036Z,6.30
2018-01-10T08:04:34.362Z,6.40
2018-01-10T08:07:02.800Z,6.50
2018-01-10T08:09:31.765Z,6.40
2018-01-10T08:12:00.125Z,6.30
2018-01-10T08:14:29.264Z,6.30
2018-01-10T08:16:57.537Z,6.30
2018-01-10T08:19:25.805Z,6.30
2018-01-10T08:21:54.127Z,6.30
2018-01-10T08:24:22.460Z,6.40
2018-01-10T08:26:50.822Z,6.40
2018-01-10T08:29:19.951Z,6.40
2018-01-10T08:31:48.241Z,6.40
2018-01-10T08:34:16.497Z,6.40
2018-01-10T08:36:44.860Z,6.40
2018-01-10T08:39:13.911Z,6.40
2018-01-10T08:41:42.190Z,6.40
2018-01-10T08:44:10.493Z,6.50
2018-01-10T08:46:39.519Z,6.50
2018-01-10T08:49:07.864Z,6.40
2018-01-10T08:51:36.969Z,6.40
2018-01-10T08:54:05.274Z,6.40
2018-01-10T08:56:33.548Z,6.50
2018-01-10T08:59:01.868Z,6.40
2018-01-10T09:01:30.119Z,6.40
2018-01-10T09:03:58.421Z,6.50
2018-01-10T09:06:26.746Z,6.50
2018-01-10T09:08:54.975Z,6.50
2018-01-10T09:11:23.223Z,6.30
2018-01-10T09:13:51.492Z,6.30
2018-01-10T09:16:19.873Z,6.50
2018-01-10T09:18:48.196Z,6.50
2018-01-10T09:21:17.282Z,6.40
2018-01-10T09:23:46.324Z,6.40
2018-01-10T09:26:14.565Z,6.40
2018-01-10T09:28:42.996Z,6.50
2018-01-10T09:31:11.263Z,6.50
2018-01-10T09:33:39.534Z,6.50
2018-01-10T09:36:07.868Z,6.60
2018-01-10T09:38:36.896Z,6.60
2018-01-10T09:41:05.938Z,6.60
2018-01-10T09:43:34.344Z,6.60
2018-01-10T09:46:03.379Z,6.70
2018-01-10T09:48:31.696Z,6.70
2018-01-10T09:51:00.806Z,6.60
2018-01-10T09:53:29.159Z,6.60
2018-01-10T09:55:57.448Z,6.60
2018-01-10T09:58:26.492Z,6.70
2018-01-10T10:00:54.760Z,6.70
2018-01-10T10:03:23.060Z,6.70
2018-01-10T10:05:51.376Z,6.70
2018-01-10T10:08:19.661Z,6.60
2018-01-10T10:10:47.931Z,6.60
2018-01-10T10:13:16.733Z,6.70
2018-01-10T10:15:45.069Z,6.80
2018-01-10T10:18:13.362Z,6.80
2018-01-10T10:20:41.707Z,6.80
2018-01-10T10:23:10.017Z,6.80
2018-01-10T10:25:38.367Z,6.80
2018-01-10T10:28:06.729Z,6.80
2018-01-10T10:30:35.124Z,6.80
2018-01-10T10:33:03.392Z,6.80
2018-01-10T10:35:31.780Z,6.80
2018-01-10T10:38:00.043Z,6.70
2018-01-10T10:40:28.319Z,6.60
2018-01-10T10:42:56.679Z,6.60
2018-01-10T10:45:24.960Z,6.70
2018-01-10T10:47:53.301Z,6.60
2018-01-10T10:50:22.380Z,6.60
2018-01-10T10:52:50.675Z,6.60
2018-01-10T10:55:19.834Z,6.60
2018-01-10T10:57:48.177Z,6.60
2018-01-10T11:00:16.441Z,6.50
2018-01-10T11:02:44.746Z,6.50
2018-01-10T11:05:13.072Z,6.50
2018-01-10T11:07:41.359Z,6.50
2018-01-10T11:10:09.614Z,6.50
2018-01-10T11:12:38.686Z,6.40
2018-01-10T11:15:06.970Z,6.40
2018-01-10T11:17:35.305Z,6.40
2018-01-10T11:20:03.651Z,6.50
2018-01-10T11:22:32.058Z,6.40
2018-01-10T11:25:00.348Z,6.40
2018-01-10T11:27:28.665Z,6.40
2018-01-10T11:29:56.923Z,6.50
2018-01-10T11:32:25.848Z,6.50
2018-01-10T11:34:54.194Z,6.50
2018-01-10T11:37:22.535Z,6.50
2018-01-10T11:39:50.835Z,6.50
2018-01-10T11:42:19.244Z,6.50
2018-01-10T11:44:47.517Z,6.60
2018-01-10T11:47:16.561Z,6.60
2018-01-10T11:49:44.880Z,6.60
2018-01-10T11:52:13.216Z,6.60
2018-01-10T11:54:41.640Z,6.60
2018-01-10T11:57:10.754Z,6.80
2018-01-10T11:59:39.018Z,6.80
2018-01-10T12:02:07.261Z,6.80
2018-01-10T12:04:35.601Z,6.80
2018-01-10T12:07:03.886Z,6.90
2018-01-10T12:09:32.179Z,7.00
2018-01-10T12:12:01.270Z,7.00
2018-01-10T12:14:29.555Z,6.90
2018-01-10T12:16:58.667Z,7.00
2018-01-10T12:19:26.956Z,7.00
2018-01-10T12:21:55.333Z,7.00
2018-01-10T12:24:23.573Z,6.80
2018-01-10T12:26:51.956Z,6.80
2018-01-10T12:29:20.233Z,7.00
2018-01-10T12:31:48.493Z,6.90
2018-01-10T12:34:17.904Z,7.00
2018-01-10T12:36:46.248Z,7.00
2018-01-10T12:39:14.512Z,6.90
2018-01-10T12:41:43.581Z,6.90
2018-01-10T12:44:11.874Z,6.90
2018-01-10T12:46:40.200Z,7.00
2018-01-10T12:49:08.548Z,6.90
2018-01-10T12:51:36.996Z,6.90
2018-01-10T12:54:05.319Z,6.80
2018-01-10T12:56:33.632Z,6.80
2018-01-10T12:59:01.979Z,6.80
2018-01-10T13:01:30.285Z,6.70
2018-01-10T13:03:58.743Z,6.80
2018-01-10T13:06:27.035Z,6.80
2018-01-10T13:08:55.371Z,6.80
2018-01-10T13:11:23.722Z,6.70
2018-01-10T13:13:52.028Z,6.80
2018-01-10T13:16:20.300Z,6.80
2018-01-10T13:18:48.567Z,6.70
2018-01-10T13:21:16.882Z,6.60
2018-01-10T13:23:45.206Z,6.70
2018-01-10T13:26:14.320Z,6.80
2018-01-10T13:28:43.348Z,7.10
2018-01-10T13:31:11.633Z,7.10
2018-01-10T13:33:39.987Z,7.00
2018-01-10T13:36:08.504Z,7.00
2018-01-10T13:38:36.819Z,7.10
2018-01-10T13:41:05.125Z,7.20
2018-01-10T13:43:33.397Z,7.30
2018-01-10T13:46:01.741Z,7.30
2018-01-10T13:48:30.875Z,7.40
2018-01-10T13:50:59.178Z,7.40
2018-01-10T13:53:27.446Z,7.30
2018-01-10T13:55:55.756Z,7.30
2018-01-10T13:58:24.827Z,7.40
2018-01-10T14:00:53.262Z,7.30
2018-01-10T14:03:21.538Z,7.30
2018-01-10T14:05:50.658Z,7.40
2018-01-10T14:08:18.932Z,7.40
2018-01-10T14:10:47.197Z,7.40
2018-01-10T14:13:15.456Z,7.40
2018-01-10T14:15:44.442Z,7.30
2018-01-10T14:18:12.791Z,7.30
2018-01-10T14:20:41.026Z,7.20
2018-01-10T14:23:09.285Z,7.10
2018-01-10T14:25:38.093Z,7.10
2018-01-10T14:28:06.348Z,7.10
2018-01-10T14:30:34.623Z,7.00
2018-01-10T14:33:02.874Z,7.10
2018-01-10T14:35:31.907Z,7.20
2018-01-10T14:38:00.221Z,7.20
2018-01-10T14:40:28.506Z,7.20
2018-01-10T14:42:56.799Z,7.20
2018-01-10T14:45:25.062Z,7.20
2018-01-10T14:47:53.342Z,7.30
2018-01-10T14:50:21.584Z,7.30
2018-01-10T14:52:49.859Z,7.30
2018-01-10T14:55:18.131Z,7.20
2018-01-10T14:57:46.353Z,7.10
2018-01-10T15:00:14.589Z,7.10
2018-01-10T15:02:43.008Z,7.20
2018-01-10T15:05:11.248Z,7.30
2018-01-10T15:07:39.479Z,7.30
2018-01-10T15:10:07.817Z,7.30
2018-01-10T15:12:36.838Z,7.30
2018-01-10T15:15:05.848Z,7.20
2018-01-10T15:17:34.131Z,7.20
2018-01-10T15:20:02.367Z,7.30
2018-01-10T15:22:30.744Z,7.30
2018-01-10T15:24:59.061Z,7.20
2018-01-10T15:27:27.397Z,7.10
2018-01-10T15:29:56.452Z,6.80
2018-01-10T15:32:24.808Z,6.80
2018-01-10T15:34:53.053Z,6.70
2018-01-10T15:37:22.075Z,6.50
2018-01-10T15:39:50.381Z,6.40
2018-01-10T15:42:18.631Z,6.40
2018-01-10T15:44:46.873Z,6.50
2018-01-10T15:47:15.965Z,6.70
2018-01-10T15:49:44.221Z,6.70
2018-01-10T15:52:12.454Z,6.90
2018-01-10T15:54:40.793Z,7.00
2018-01-10T15:57:09.814Z,7.10
2018-01-10T15:59:38.229Z,7.00
2018-01-10T16:02:06.699Z,7.00
2018-01-10T16:04:34.958Z,7.10
2018-01-10T16:07:04.003Z,7.10
2018-01-10T16:09:33.109Z,7.00
2018-01-10T16:12:02.133Z,7.00
2018-01-10T16:14:30.634Z,6.90
2018-01-10T16:16:58.959Z,7.10
2018-01-10T16:19:27.968Z,7.20
2018-01-10T16:21:56.231Z,7.20
2018-01-10T16:24:24.589Z,7.30
2018-01-10T16:26:52.897Z,7.30
2018-01-10T16:29:21.136Z,7.10
2018-01-10T16:31:49.576Z,7.00
2018-01-10T16:34:17.879Z,6.80
2018-01-10T16:36:46.125Z,6.80
2018-01-10T16:39:14.425Z,6.80
2018-01-10T16:41:43.004Z,6.90
2018-01-10T16:44:11.249Z,7.00
2018-01-10T16:46:39.540Z,7.00
2018-01-10T16:49:22.606Z,7.00
2018-01-10T16:51:51.105Z,7.10
2018-01-10T16:54:21.178Z,7.10
2018-01-10T16:56:49.846Z,7.10
2018-01-10T16:59:19.774Z,7.20
2018-01-10T17:01:49.275Z,7.30
2018-01-10T17:04:18.189Z,7.20
2018-01-10T17:06:46.596Z,7.30
2018-01-10T17:09:17.108Z,7.30
2018-01-10T17:11:45.510Z,7.30
2018-01-10T17:14:13.925Z,7.30
2018-01-10T17:16:42.304Z,7.20
2018-01-10T17:19:10.594Z,7.20
2018-01-10T17:21:39.183Z,7.20
2018-01-10T17:24:13.409Z,7.20
2018-01-10T17:26:42.198Z,7.20
2018-01-10T17:29:11.062Z,7.30
2018-01-10T17:34:18.865Z,7.30
2018-01-10T17:36:47.340Z,7.30
2018-01-10T17:39:15.647Z,7.30
2018-01-10T17:41:44.769Z,7.30
2018-01-10T17:44:13.077Z,7.20
2018-01-10T17:46:41.331Z,7.10
2018-01-10T17:49:09.589Z,7.10
2018-01-10T17:51:37.933Z,7.00
2018-01-10T17:54:06.289Z,6.90
2018-01-10T17:56:34.606Z,6.80
2018-01-10T17:59:03.530Z,6.80
2018-01-10T18:01:31.924Z,6.80
2018-01-10T18:04:00.242Z,6.90
2018-01-10T18:06:28.592Z,6.80
2018-01-10T18:08:56.872Z,6.90
2018-01-10T18:11:26.648Z,7.10
2018-01-10T18:13:55.956Z,7.00
2018-01-10T18:16:25.947Z,6.90
2018-01-10T18:18:54.198Z,7.00
2018-01-10T18:21:22.513Z,7.20
2018-01-10T18:23:51.543Z,7.10
2018-01-10T18:26:19.803Z,7.10
2018-01-10T18:28:48.107Z,7.10
2018-01-10T18:31:16.374Z,7.00
2018-01-10T18:33:44.677Z,7.10
2018-01-10T18:36:12.999Z,7.10
2018-01-10T18:38:41.289Z,7.00
2018-01-10T18:41:09.609Z,7.00
2018-01-10T18:43:38.005Z,7.10
2018-01-10T18:46:06.265Z,7.10
2018-01-10T18:48:34.553Z,7.10
2018-01-10T18:51:02.893Z,7.10
2018-01-10T18:53:31.127Z,7.10
2018-01-10T18:55:59.423Z,7.10
2018-01-10T18:58:27.783Z,7.10
2018-01-10T19:00:57.445Z,7.10
2018-01-10T19:03:25.688Z,7.10
2018-01-10T19:05:53.992Z,7.10
2018-01-10T19:08:22.244Z,7.20
2018-01-10T19:10:50.513Z,7.00
2018-01-10T19:13:18.879Z,6.70
2018-01-10T19:15:47.163Z,6.80
2018-01-10T19:18:15.464Z,6.90
2018-01-10T19:20:43.827Z,6.90
2018-01-10T19:23:13.537Z,6.90
2018-01-10T19:25:41.843Z,7.00
2018-01-10T19:28:10.178Z,7.00
2018-01-10T19:30:38.501Z,7.00
2018-01-10T19:33:06.820Z,7.00
2018-01-10T19:35:37.755Z,6.80
2018-01-10T19:38:06.563Z,6.80
2018-01-10T19:40:35.602Z,6.90
2018-01-10T19:43:04.095Z,6.80
2018-01-10T19:45:32.377Z,6.70
2018-01-10T19:48:00.626Z,6.80
2018-01-10T19:50:28.943Z,6.90
2018-01-10T19:52:58.145Z,7.00
2018-01-10T19:55:27.172Z,6.90
2018-01-10T19:57:55.431Z,6.90
2018-01-10T20:00:23.819Z,6.70
2018-01-10T20:02:52.068Z,6.70
2018-01-10T20:05:21.122Z,6.60
2018-01-10T20:07:49.564Z,6.60
2018-01-10T20:10:17.839Z,6.60
2018-01-10T20:12:46.948Z,6.70
2018-01-10T20:15:15.299Z,6.60
2018-01-10T20:17:43.526Z,6.80
2018-01-10T20:20:11.971Z,6.80
2018-01-10T20:22:40.397Z,6.80
2018-01-10T20:25:08.639Z,6.80
2018-01-10T20:27:37.027Z,6.80
2018-01-10T20:30:06.188Z,6.70
2018-01-10T20:32:34.447Z,6.70
2018-01-10T20:35:03.608Z,6.60
2018-01-10T20:37:31.847Z,6.60
2018-01-10T20:40:00.120Z,6.50
2018-01-10T20:42:28.742Z,6.50
2018-01-10T20:44:58.003Z,6.20
2018-01-10T20:47:26.348Z,6.20
2018-01-10T20:49:55.496Z,5.90
2018-01-10T20:52:23.816Z,5.90
2018-01-10T20:54:53.890Z,5.70
2018-01-10T20:57:22.232Z,5.70
2018-01-10T20:59:50.539Z,5.60
2018-01-10T21:02:19.020Z,5.60
2018-01-10T21:04:47.296Z,5.60
2018-01-10T21:07:15.621Z,5.40
2018-01-10T21:09:44.777Z,5.30
2018-01-10T21:12:13.117Z,5.30
2018-01-10T21:14:41.365Z,5.40
2018-01-10T21:17:09.722Z,5.30
2018-01-10T21:19:38.056Z,5.60
2018-01-10T21:22:06.461Z,5.50
2018-01-10T21:24:34.730Z,5.60
2018-01-10T21:27:03.216Z,5.60
2018-01-10T21:29:31.467Z,5.50
2018-01-10T21:31:59.722Z,5.40
2018-01-10T21:34:28.025Z,5.30
2018-01-10T21:36:56.409Z,5.40
2018-01-10T21:39:24.701Z,5.30
2018-01-10T21:41:53.063Z,5.40
2018-01-10T21:44:21.339Z,5.40
2018-01-10T21:46:49.616Z,5.30
2018-01-10T21:49:17.971Z,5.20
2018-01-10T21:51:46.404Z,5.10
2018-01-10T21:54:14.677Z,5.30
2018-01-10T21:56:42.969Z,5.30
2018-01-10T21:59:11.301Z,5.40
2018-01-10T22:01:39.553Z,5.70
2018-01-10T22:04:07.999Z,5.90
2018-01-10T22:06:36.356Z,5.70
2018-01-10T22:09:04.620Z,5.50
2018-01-10T22:11:32.990Z,5.70
2018-01-10T22:14:01.241Z,5.70
2018-01-10T22:16:29.611Z,5.60
2018-01-10T22:18:58.682Z,5.80
2018-01-10T22:21:27.076Z,5.80
2018-01-10T22:23:56.128Z,5.90
2018-01-10T22:26:24.480Z,5.90
2018-01-10T22:28:52.740Z,5.70
2018-01-10T22:31:20.977Z,6.00
2018-01-10T22:33:49.292Z,6.10
2018-01-10T22:36:17.568Z,6.10
2018-01-10T22:38:45.837Z,6.00
2018-01-10T22:41:14.157Z,6.00
2018-01-10T22:43:42.409Z,5.70
2018-01-10T22:46:11.496Z,6.00
2018-01-10T22:48:39.836Z,6.00
2018-01-10T22:51:08.079Z,5.90
2018-01-10T22:53:36.358Z,5.70
2018-01-10T22:56:04.764Z,5.70
2018-01-10T22:58:33.089Z,6.00
2018-01-10T23:01:01.382Z,6.10
2018-01-10T23:03:29.760Z,6.10
2018-01-10T23:05:58.015Z,6.10
2018-01-10T23:08:26.305Z,6.00
2018-01-10T23:10:54.803Z,6.00
2018-01-10T23:13:23.072Z,5.90
2018-01-10T23:15:51.330Z,5.90
2018-01-10T23:18:19.692Z,5.80
2018-01-10T23:20:48.007Z,5.90
2018-01-10T23:23:16.336Z,5.70
2018-01-10T23:25:45.511Z,5.80
2018-01-10T23:28:14.558Z,5.90
2018-01-10T23:30:42.931Z,5.90
2018-01-10T23:33:11.302Z,6.00
2018-01-10T23:35:39.625Z,5.80
2018-01-10T23:38:07.976Z,5.60
2018-01-10T23:40:36.355Z,5.70
2018-01-10T23:43:05.252Z,5.60
2018-01-10T23:45:33.568Z,5.50
2018-01-10T23:48:02.609Z,5.50
2018-01-10T23:50:30.873Z,5.50
2018-01-10T23:52:59.140Z,5.40
2018-01-10T23:55:27.481Z,5.90
2018-01-10T23:57:55.785Z,6.00
